Time;durP1;ratioP1;P1;durP2;ratioP2;P2;SDS_P1;SDS_P2;PMS_P1;PMS_P2;Temp;Humidity;BMP_temperature;BMP_pressure;BME280_temperature;BME280_humidity;BME280_pressure;Samples;Min_cycle;Max_cycle;Signal;HPM_P1;HPM_P2
2020/12/03 00:00:37;;;;;;;57.17;17.08;;;1.40;99.90;;;;;;5034881;28;20112;-66
2020/12/03 00:03:57;;;;;;;53.95;17.35;;;1.50;99.90;;;;;;5020909;28;20044;-66
2020/12/03 00:06:51;;;;;;;57.35;17.80;;;1.40;99.90;;;;;;5033789;28;20057;-66
2020/12/03 00:09:38;;;;;;;53.45;17.17;;;1.30;99.90;;;;;;5005546;28;20076;-66
2020/12/03 00:12:24;;;;;;;57.97;18.77;;;1.20;99.90;;;;;;5034759;28;20049;-66
2020/12/03 00:15:10;;;;;;;56.22;17.55;;;1.30;99.90;;;;;;5033048;28;20489;-66
2020/12/03 00:17:56;;;;;;;56.38;18.02;;;1.20;99.90;;;;;;5033625;28;20088;-66
2020/12/03 00:20:45;;;;;;;61.35;17.42;;;1.20;99.90;;;;;;5019336;28;20120;-66
2020/12/03 00:23:32;;;;;;;58.28;19.15;;;1.20;99.90;;;;;;5032837;28;20041;-66
2020/12/03 00:26:18;;;;;;;58.33;18.00;;;1.00;99.90;;;;;;5018449;28;20038;-66
2020/12/03 00:29:05;;;;;;;62.72;21.23;;;1.20;99.90;;;;;;5033531;28;20115;-66
2020/12/03 00:31:51;;;;;;;55.40;18.50;;;1.20;99.90;;;;;;5033824;28;20049;-66
2020/12/03 00:34:40;;;;;;;61.90;19.42;;;1.30;99.90;;;;;;5032796;28;20042;-66
2020/12/03 00:37:26;;;;;;;65.45;18.88;;;1.30;99.90;;;;;;5019028;28;20037;-66
2020/12/03 00:40:13;;;;;;;52.83;18.83;;;1.30;99.90;;;;;;5033029;28;20482;-66
2020/12/03 00:42:59;;;;;;;62.05;18.73;;;1.10;99.90;;;;;;5033688;28;20038;-66
2020/12/03 00:45:47;;;;;;;63.35;18.15;;;1.10;99.90;;;;;;5017691;28;20037;-66
2020/12/03 00:48:34;;;;;;;65.55;18.00;;;1.00;99.90;;;;;;5032654;28;20060;-66
2020/12/03 00:51:20;;;;;;;61.35;18.85;;;1.10;99.90;;;;;;5032852;28;20077;-66
2020/12/03 00:54:06;;;;;;;58.88;18.98;;;0.90;99.90;;;;;;5032300;28;20030;-66
2020/12/03 00:56:52;;;;;;;57.00;20.95;;;0.90;99.90;;;;;;5032272;28;20048;-66
2020/12/03 00:59:38;;;;;;;75.80;19.83;;;0.90;99.90;;;;;;5031453;28;20030;-66
2020/12/03 01:02:25;;;;;;;63.97;19.98;;;0.90;99.90;;;;;;5017720;28;20398;-66
2020/12/03 01:05:13;;;;;;;62.50;17.58;;;0.90;99.90;;;;;;5032797;28;20124;-66
2020/12/03 01:07:59;;;;;;;65.32;19.90;;;1.00;99.90;;;;;;5033226;28;20501;-66
2020/12/03 01:10:46;;;;;;;64.20;19.35;;;0.90;99.90;;;;;;5017815;28;20172;-66
2020/12/03 01:13:32;;;;;;;65.63;19.85;;;0.90;99.90;;;;;;5032317;28;20117;-66
2020/12/03 01:16:19;;;;;;;77.65;20.67;;;1.10;99.90;;;;;;5018248;28;20037;-66
2020/12/03 01:19:05;;;;;;;77.30;20.60;;;1.30;99.90;;;;;;5017153;28;20118;-66
2020/12/03 01:21:51;;;;;;;64.80;20.55;;;1.30;99.90;;;;;;5031624;28;20041;-66
2020/12/03 01:24:40;;;;;;;71.38;20.48;;;1.30;99.90;;;;;;5031747;28;20033;-66
2020/12/03 01:27:26;;;;;;;59.63;19.50;;;1.30;99.90;;;;;;5018456;28;20498;-66
2020/12/03 01:30:14;;;;;;;65.28;19.13;;;1.20;99.90;;;;;;5017452;28;20033;-66
2020/12/03 01:33:00;;;;;;;65.60;20.00;;;1.10;99.90;;;;;;5017681;28;20061;-66
2020/12/03 01:35:46;;;;;;;64.50;19.35;;;1.10;99.90;;;;;;5017990;28;20034;-66
2020/12/03 01:38:32;;;;;;;64.80;18.80;;;1.00;99.90;;;;;;5031872;28;20072;-66
2020/12/03 01:41:19;;;;;;;60.65;19.45;;;1.00;99.90;;;;;;5032006;28;20025;-66
2020/12/03 01:44:06;;;;;;;67.60;18.05;;;1.00;99.90;;;;;;5031943;28;20073;-66
2020/12/03 01:46:54;;;;;;;66.43;19.92;;;1.00;99.90;;;;;;5031777;28;20060;-66
2020/12/03 01:49:41;;;;;;;66.07;20.65;;;1.00;99.90;;;;;;5030892;28;20131;-66
2020/12/03 01:52:27;;;;;;;66.28;19.88;;;0.90;99.90;;;;;;5017406;28;20387;-66
2020/12/03 01:55:13;;;;;;;70.55;19.33;;;0.90;99.90;;;;;;5017998;28;20390;-66
2020/12/03 01:58:03;;;;;;;56.42;17.20;;;1.00;99.90;;;;;;5031543;28;20123;-66
2020/12/03 02:00:49;;;;;;;65.43;20.48;;;1.00;99.90;;;;;;5016646;28;20034;-65
2020/12/03 02:03:46;;;;;;;61.45;18.30;;;0.90;99.90;;;;;;5017466;28;20109;-66
2020/12/03 02:06:37;;;;;;;68.18;20.42;;;1.00;99.90;;;;;;5031617;28;20057;-66
2020/12/03 02:09:23;;;;;;;65.97;18.80;;;1.00;99.90;;;;;;5003759;28;20390;-66
2020/12/03 02:12:09;;;;;;;71.30;20.23;;;0.90;99.90;;;;;;5016714;28;20062;-66
2020/12/03 02:14:55;;;;;;;77.30;20.63;;;1.00;99.90;;;;;;5030633;28;20021;-66
2020/12/03 02:17:42;;;;;;;65.78;19.33;;;1.00;99.90;;;;;;5031737;28;20046;-65
2020/12/03 02:20:28;;;;;;;63.85;18.83;;;1.10;99.90;;;;;;5016633;28;20076;-66
2020/12/03 02:23:17;;;;;;;56.53;18.63;;;1.10;99.90;;;;;;5030605;28;20069;-66
2020/12/03 02:26:03;;;;;;;57.70;19.17;;;1.30;99.90;;;;;;5030624;28;20022;-66
2020/12/03 02:28:49;;;;;;;55.30;18.23;;;1.30;99.90;;;;;;5030494;28;20037;-66
2020/12/03 02:31:35;;;;;;;59.38;17.98;;;1.30;99.90;;;;;;5030723;28;20140;-66
2020/12/03 02:34:22;;;;;;;64.80;18.75;;;1.20;99.90;;;;;;5031095;28;20120;-66
2020/12/03 02:37:08;;;;;;;57.70;17.42;;;1.20;99.90;;;;;;5029824;28;20037;-66
2020/12/03 02:39:54;;;;;;;50.92;18.73;;;1.30;99.90;;;;;;5030895;28;20071;-65
2020/12/03 02:42:40;;;;;;;59.30;19.20;;;1.20;99.90;;;;;;5016930;28;20409;-66
2020/12/03 02:45:26;;;;;;;55.55;19.20;;;1.00;99.90;;;;;;5030697;28;20037;-66
2020/12/03 02:48:12;;;;;;;53.33;18.92;;;1.10;99.90;;;;;;5030073;28;20041;-66
2020/12/03 02:50:59;;;;;;;54.90;18.58;;;1.10;99.90;;;;;;5015657;28;20098;-66
2020/12/03 02:53:45;;;;;;;60.70;17.35;;;1.00;99.90;;;;;;5016068;28;20044;-66
2020/12/03 02:56:31;;;;;;;60.17;18.35;;;1.10;99.90;;;;;;5030925;28;20504;-66
2020/12/03 02:59:17;;;;;;;57.65;18.92;;;1.00;99.90;;;;;;5030809;28;20087;-66
2020/12/03 03:02:04;;;;;;;57.35;19.10;;;1.00;99.90;;;;;;5015556;28;20044;-66
2020/12/03 03:04:50;;;;;;;62.58;18.70;;;1.10;99.90;;;;;;5030040;28;20033;-66
2020/12/03 03:07:36;;;;;;;66.80;20.23;;;1.00;99.90;;;;;;5030237;28;20033;-66
2020/12/03 03:10:22;;;;;;;58.85;19.08;;;1.00;99.90;;;;;;5029512;28;20047;-66
2020/12/03 03:13:08;;;;;;;65.30;20.08;;;1.10;99.90;;;;;;5031330;28;20065;-66
2020/12/03 03:15:55;;;;;;;70.93;20.20;;;1.10;99.90;;;;;;5030951;28;20498;-66
2020/12/03 03:18:41;;;;;;;73.93;19.38;;;1.00;99.90;;;;;;5032058;28;20494;-66
2020/12/03 03:21:27;;;;;;;56.25;18.92;;;1.00;99.90;;;;;;5034309;28;20505;-66
2020/12/03 03:24:14;;;;;;;63.95;18.58;;;1.00;99.90;;;;;;5034496;28;20453;-66
2020/12/03 03:27:00;;;;;;;69.88;19.92;;;1.10;99.90;;;;;;5034538;28;20049;-66
2020/12/03 03:29:46;;;;;;;59.70;19.52;;;1.10;99.90;;;;;;5019252;28;20099;-66
2020/12/03 03:32:33;;;;;;;58.13;17.77;;;1.00;99.90;;;;;;5034231;28;20414;-66
2020/12/03 03:35:20;;;;;;;57.40;19.15;;;1.10;99.90;;;;;;5033960;28;20499;-65
2020/12/03 03:38:06;;;;;;;62.00;19.48;;;1.00;99.90;;;;;;5033275;28;20029;-66
2020/12/03 03:40:52;;;;;;;62.80;19.63;;;1.00;99.90;;;;;;5019932;28;20041;-66
2020/12/03 03:43:38;;;;;;;54.50;17.08;;;1.00;99.90;;;;;;5034192;28;20482;-66
2020/12/03 03:46:24;;;;;;;67.93;21.48;;;1.00;99.90;;;;;;5033788;28;20564;-66
2020/12/03 03:49:10;;;;;;;62.28;20.95;;;1.10;99.90;;;;;;5019588;28;20048;-66
2020/12/03 03:51:56;;;;;;;56.75;20.50;;;1.00;99.90;;;;;;5033520;28;20091;-66
2020/12/03 03:54:42;;;;;;;50.47;17.83;;;1.10;99.90;;;;;;5033970;28;20110;-66
2020/12/03 03:57:29;;;;;;;57.08;17.83;;;1.10;99.90;;;;;;5033732;28;20037;-66
2020/12/03 04:00:18;;;;;;;55.42;18.35;;;1.10;99.90;;;;;;5034533;28;20044;-66
2020/12/03 04:03:04;;;;;;;50.25;17.38;;;1.20;99.90;;;;;;5019713;28;20037;-66
2020/12/03 04:05:55;;;;;;;52.53;17.75;;;1.20;99.90;;;;;;5033736;28;20076;-66
2020/12/03 04:08:41;;;;;;;53.88;18.45;;;1.20;99.90;;;;;;5019642;28;20116;-66
2020/12/03 04:11:27;;;;;;;61.38;19.35;;;1.10;99.90;;;;;;5033266;28;20053;-66
2020/12/03 04:14:15;;;;;;;51.13;17.52;;;1.10;99.90;;;;;;5018963;28;20120;-66
2020/12/03 04:17:01;;;;;;;55.08;18.92;;;1.10;99.90;;;;;;5034590;28;20112;-66
2020/12/03 04:19:47;;;;;;;49.60;18.58;;;1.10;99.90;;;;;;5018662;28;20029;-66
2020/12/03 04:22:33;;;;;;;53.95;17.63;;;1.10;99.90;;;;;;5033014;28;20092;-66
2020/12/03 04:25:19;;;;;;;59.80;20.70;;;1.10;99.90;;;;;;5018959;28;20037;-66
2020/12/03 04:28:05;;;;;;;55.40;19.67;;;1.10;99.90;;;;;;5019287;28;20033;-66
2020/12/03 04:30:52;;;;;;;49.90;18.88;;;1.10;99.90;;;;;;5017325;28;20045;-66
2020/12/03 04:33:38;;;;;;;45.28;17.23;;;1.10;99.90;;;;;;5033307;28;20041;-66
2020/12/03 04:36:24;;;;;;;50.13;17.90;;;1.20;99.90;;;;;;5033458;28;20128;-66
2020/12/03 04:39:10;;;;;;;51.90;18.90;;;1.20;99.90;;;;;;5033854;28;20040;-66
2020/12/03 04:41:59;;;;;;;57.67;18.85;;;1.20;99.90;;;;;;5032303;28;20087;-66
2020/12/03 04:44:46;;;;;;;52.45;17.85;;;1.20;99.90;;;;;;5018394;28;20046;-66
2020/12/03 04:48:00;;;;;;;53.03;17.42;;;1.20;99.90;;;;;;5018600;28;20417;-66
2020/12/03 04:51:27;;;;;;;49.65;17.13;;;1.20;99.90;;;;;;5032890;28;20064;-66
2020/12/03 04:54:34;;;;;;;63.30;17.65;;;1.20;99.90;;;;;;5012574;28;20121;-66
2020/12/03 04:57:34;;;;;;;51.15;16.42;;;1.20;99.90;;;;;;5031761;28;20037;-65
2020/12/03 05:00:40;;;;;;;50.45;17.30;;;1.30;99.90;;;;;;5016895;28;20033;-65
2020/12/03 05:03:55;;;;;;;49.90;17.75;;;1.40;99.90;;;;;;5019870;28;20099;-65
2020/12/03 05:07:09;;;;;;;54.63;16.90;;;1.30;99.90;;;;;;5023935;28;20109;-65
2020/12/03 05:10:09;;;;;;;49.90;17.70;;;1.30;99.90;;;;;;5032856;28;20469;-65
2020/12/03 05:12:55;;;;;;;51.20;16.92;;;1.30;99.90;;;;;;5019732;28;20364;-66
2020/12/03 05:15:42;;;;;;;55.65;19.10;;;1.30;99.90;;;;;;5031596;28;20403;-67
2020/12/03 05:19:01;;;;;;;50.47;18.40;;;1.30;99.90;;;;;;5018984;28;20086;-66
2020/12/03 05:21:48;;;;;;;50.00;18.80;;;1.20;99.90;;;;;;5031517;28;20041;-65
2020/12/03 05:24:34;;;;;;;56.13;20.20;;;1.20;99.90;;;;;;5031813;28;20436;-64
2020/12/03 05:27:27;;;;;;;42.75;17.70;;;1.20;99.90;;;;;;5031444;28;20355;-64
2020/12/03 05:30:14;;;;;;;52.28;19.10;;;1.20;99.90;;;;;;5031293;28;20036;-64
2020/12/03 05:33:00;;;;;;;59.05;20.25;;;1.20;99.90;;;;;;5031907;28;20103;-65
2020/12/03 05:35:47;;;;;;;54.00;17.48;;;1.20;99.90;;;;;;5016950;28;20067;-65
2020/12/03 05:38:33;;;;;;;52.13;18.23;;;1.20;99.90;;;;;;5032632;28;20037;-64
2020/12/03 05:41:21;;;;;;;49.17;19.20;;;1.30;99.90;;;;;;5017651;28;20045;-66
2020/12/03 05:44:54;;;;;;;50.47;18.50;;;1.40;99.90;;;;;;5016843;28;20503;-63
2020/12/03 05:47:45;;;;;;;45.60;17.30;;;1.40;99.90;;;;;;5001693;28;20053;-64
2020/12/03 05:50:41;;;;;;;52.92;20.85;;;1.30;99.90;;;;;;5031490;28;20146;-65
2020/12/03 05:53:28;;;;;;;52.83;18.90;;;1.30;99.90;;;;;;5030991;28;20445;-65
2020/12/03 05:56:22;;;;;;;49.13;19.27;;;1.30;99.90;;;;;;5032166;28;20042;-66
2020/12/03 05:59:19;;;;;;;58.47;19.60;;;1.30;99.90;;;;;;5016732;28;20076;-63
2020/12/03 06:02:21;;;;;;;50.72;17.15;;;1.30;99.90;;;;;;5017430;28;20493;-69
2020/12/03 06:05:24;;;;;;;47.55;16.98;;;1.40;99.90;;;;;;5018222;28;20033;-69
2020/12/03 06:08:16;;;;;;;45.17;15.95;;;1.40;99.90;;;;;;5017339;28;20132;-71
2020/12/03 06:11:41;;;;;;;51.13;19.77;;;1.30;99.90;;;;;;5031665;28;20494;-60
2020/12/03 06:14:55;;;;;;;48.33;16.42;;;1.20;99.90;;;;;;5030261;28;20391;-57
2020/12/03 06:18:17;;;;;;;48.13;17.35;;;1.30;99.90;;;;;;5032504;28;20037;-58
2020/12/03 06:21:35;;;;;;;49.42;17.92;;;1.30;99.90;;;;;;5031697;28;20034;-59
2020/12/03 06:24:47;;;;;;;51.70;17.42;;;1.30;99.90;;;;;;5031573;28;20044;-58
2020/12/03 06:28:10;;;;;;;45.30;17.75;;;1.30;99.90;;;;;;5032337;28;20045;-70
2020/12/03 06:31:29;;;;;;;44.50;16.95;;;1.30;99.90;;;;;;5015861;28;20040;-70
2020/12/03 06:34:41;;;;;;;49.05;17.73;;;1.30;99.90;;;;;;5029996;28;20037;-70
2020/12/03 06:37:39;;;;;;;44.22;17.50;;;1.20;99.90;;;;;;5031014;28;20045;-70
2020/12/03 06:40:32;;;;;;;51.83;19.85;;;1.10;99.90;;;;;;5016719;28;20115;-71
2020/12/03 06:43:33;;;;;;;51.15;20.17;;;1.10;99.90;;;;;;5031029;28;20044;-73
2020/12/03 06:46:56;;;;;;;43.92;16.63;;;1.10;99.90;;;;;;5017672;28;20577;-73
2020/12/03 06:49:52;;;;;;;53.35;19.77;;;1.20;99.90;;;;;;5016962;28;20045;-71
2020/12/03 06:53:17;;;;;;;57.95;18.50;;;1.20;99.90;;;;;;5030844;28;20112;-72
2020/12/03 06:56:15;;;;;;;55.60;19.25;;;1.20;99.90;;;;;;5029904;28;20106;-71
2020/12/03 06:59:41;;;;;;;48.72;18.13;;;1.20;99.90;;;;;;5031381;28;20050;-72
2020/12/03 07:02:34;;;;;;;49.38;19.17;;;1.20;99.90;;;;;;5016217;28;20041;-73
2020/12/03 07:06:16;;;;;;;53.05;18.98;;;1.20;99.90;;;;;;5030177;28;20033;-72
2020/12/03 07:10:15;;;;;;;52.05;19.10;;;1.30;99.90;;;;;;5031476;28;20042;-71
2020/12/03 07:13:50;;;;;;;52.25;18.42;;;1.40;99.90;;;;;;4950759;28;20048;-72
2020/12/03 07:17:29;;;;;;;51.63;19.45;;;1.30;99.90;;;;;;5016091;28;20038;-72
2020/12/03 07:20:40;;;;;;;51.60;20.60;;;1.40;99.90;;;;;;5030635;28;20105;-72
2020/12/03 07:23:42;;;;;;;48.83;18.15;;;1.40;99.90;;;;;;5029535;28;20033;-72
2020/12/03 07:26:56;;;;;;;;;;;1.30;99.90;;;;;;5030978;28;20038;-72
2020/12/03 07:30:21;;;;;;;59.38;19.05;;;1.40;99.90;;;;;;5030934;28;19921;-72
2020/12/03 07:33:17;;;;;;;56.17;18.55;;;1.40;99.90;;;;;;5017013;28;20045;-73
2020/12/03 07:36:22;;;;;;;57.03;20.98;;;1.40;99.90;;;;;;5015921;28;20033;-72
2020/12/03 07:39:16;;;;;;;59.20;21.85;;;1.40;99.90;;;;;;5016612;28;20041;-72
2020/12/03 07:42:09;;;;;;;49.60;19.38;;;1.40;99.90;;;;;;5015756;28;20136;-72
2020/12/03 07:44:55;;;;;;;48.20;17.30;;;1.50;99.90;;;;;;5013632;28;20042;-72
2020/12/03 07:47:41;;;;;;;51.05;19.00;;;1.60;99.90;;;;;;5015078;28;20425;-72
2020/12/03 07:50:30;;;;;;;54.58;20.80;;;1.70;99.90;;;;;;5028057;28;20035;-72
2020/12/03 07:53:22;;;;;;;52.50;19.52;;;1.70;99.90;;;;;;5029021;28;20132;-73
2020/12/03 07:56:26;;;;;;;49.78;19.63;;;1.70;99.90;;;;;;5027588;28;20609;-73
2020/12/03 07:59:25;;;;;;;44.90;17.42;;;1.80;99.90;;;;;;5029726;28;20413;-73
2020/12/03 08:03:02;;;;;;;57.65;19.73;;;1.70;99.90;;;;;;5030703;28;20116;-72
2020/12/03 08:05:55;;;;;;;42.83;17.73;;;1.60;99.90;;;;;;5018448;28;20505;-72
2020/12/03 08:09:04;;;;;;;45.17;17.95;;;1.60;99.90;;;;;;5019819;28;20034;-72
2020/12/03 08:11:57;;;;;;;53.47;19.85;;;1.50;99.90;;;;;;5034026;28;20362;-72
2020/12/03 08:14:55;;;;;;;50.80;18.98;;;1.60;99.90;;;;;;5019564;28;20033;-72
2020/12/03 08:17:44;;;;;;;54.47;20.63;;;1.60;99.90;;;;;;5017663;28;20164;-72
2020/12/03 08:20:44;;;;;;;53.65;19.17;;;1.60;99.90;;;;;;5018801;28;20379;-69
2020/12/03 08:23:31;;;;;;;54.55;19.73;;;1.60;99.90;;;;;;5030737;28;20047;-72
2020/12/03 08:26:28;;;;;;;55.40;19.15;;;1.60;99.90;;;;;;5005331;28;20554;-72
2020/12/03 08:29:43;;;;;;;51.67;18.15;;;1.70;99.90;;;;;;5018399;28;20037;-72
2020/12/03 08:33:26;;;;;;;52.15;18.70;;;1.70;99.90;;;;;;5022296;28;20081;-73
2020/12/03 08:36:13;;;;;;;50.55;19.38;;;1.60;99.90;;;;;;5016927;28;20410;-72
2020/12/03 08:38:59;;;;;;;52.35;20.35;;;1.70;99.90;;;;;;5018292;28;20486;-72
2020/12/03 08:41:49;;;;;;;45.15;19.02;;;1.70;99.90;;;;;;5032416;28;20033;-73
2020/12/03 08:44:36;;;;;;;51.25;19.35;;;1.80;99.90;;;;;;5033510;28;20406;-72
2020/12/03 08:47:43;;;;;;;47.80;18.45;;;1.80;99.90;;;;;;5018157;28;20430;-72
2020/12/03 08:50:29;;;;;;;51.28;18.38;;;1.80;99.90;;;;;;5019058;28;20502;-72
2020/12/03 08:53:15;;;;;;;63.33;20.13;;;1.90;99.90;;;;;;5034128;28;20033;-72
2020/12/03 08:56:17;;;;;;;51.72;18.73;;;1.90;99.90;;;;;;5018150;28;20103;-73
2020/12/03 08:59:17;;;;;;;52.03;20.02;;;2.00;99.90;;;;;;5032060;28;20447;-72
2020/12/03 09:02:10;;;;;;;39.50;16.08;;;2.10;99.90;;;;;;5019634;28;20061;-72
2020/12/03 09:04:59;;;;;;;53.67;20.25;;;2.00;99.90;;;;;;5032244;28;20091;-72
2020/12/03 09:07:52;;;;;;;50.17;19.40;;;2.10;99.90;;;;;;5016893;28;20029;-71
2020/12/03 09:10:38;;;;;;;49.42;17.55;;;2.20;99.90;;;;;;5018132;28;20037;-72
2020/12/03 09:13:25;;;;;;;42.03;16.73;;;2.30;99.90;;;;;;5016513;28;20513;-72
2020/12/03 09:16:13;;;;;;;43.13;17.15;;;2.40;99.90;;;;;;5017318;28;20061;-72
2020/12/03 09:18:59;;;;;;;46.45;18.23;;;2.50;99.90;;;;;;5017620;28;20033;-72
2020/12/03 09:21:49;;;;;;;53.15;19.85;;;2.50;99.90;;;;;;5032434;28;20061;-72
2020/12/03 09:24:37;;;;;;;44.30;16.70;;;2.50;99.90;;;;;;5018457;28;20116;-71
2020/12/03 09:27:24;;;;;;;43.88;16.35;;;2.60;99.90;;;;;;4997790;28;20451;-72
2020/12/03 09:30:23;;;;;;;38.42;16.45;;;2.50;99.90;;;;;;5011504;28;20026;-72
2020/12/03 09:33:16;;;;;;;44.70;16.63;;;2.40;99.90;;;;;;5011447;28;20042;-72
2020/12/03 09:36:02;;;;;;;45.65;17.85;;;2.50;99.90;;;;;;5010076;28;20066;-72
2020/12/03 09:38:50;;;;;;;41.65;17.90;;;2.60;99.90;;;;;;5010400;28;20038;-72
2020/12/03 09:41:36;;;;;;;41.58;17.67;;;2.50;99.90;;;;;;5011768;28;20128;-72
2020/12/03 09:44:23;;;;;;;42.25;17.42;;;2.50;99.90;;;;;;5012738;28;20030;-72
2020/12/03 09:47:14;;;;;;;43.95;16.27;;;2.50;99.90;;;;;;5010485;28;20034;-72
2020/12/03 09:50:00;;;;;;;39.78;16.23;;;2.70;99.90;;;;;;5012446;28;20088;-72
2020/12/03 09:52:48;;;;;;;45.33;16.83;;;2.60;99.90;;;;;;5009689;28;20053;-72
2020/12/03 09:55:34;;;;;;;42.95;17.88;;;2.50;99.90;;;;;;5021883;28;20546;-72
2020/12/03 09:58:21;;;;;;;37.95;15.95;;;2.60;99.90;;;;;;5031680;28;20441;-72
2020/12/03 10:01:09;;;;;;;42.17;16.13;;;2.80;99.90;;;;;;5030591;28;20044;-72
2020/12/03 10:05:07;;;;;;;44.90;17.83;;;2.80;99.90;;;;;;5032070;28;20120;-72
2020/12/03 10:08:23;;;;;;;35.50;13.95;;;2.70;99.90;;;;;;4978228;28;20483;-72
2020/12/03 10:11:28;;;;;;;36.42;15.25;;;2.80;99.90;;;;;;5016268;28;20088;-72
2020/12/03 10:14:40;;;;;;;43.20;17.02;;;2.70;99.90;;;;;;5031509;28;20486;-72
2020/12/03 10:17:33;;;;;;;;;;;2.90;99.90;;;;;;5016402;28;20096;-72
2020/12/03 10:20:20;;;;;;;41.28;15.00;;;2.90;99.90;;;;;;5018073;28;19952;-72
2020/12/03 10:23:50;;;;;;;38.00;15.48;;;2.80;99.90;;;;;;5017103;28;20475;-72
2020/12/03 10:27:09;;;;;;;34.38;14.60;;;2.90;99.90;;;;;;5011835;28;20030;-72
2020/12/03 10:30:09;;;;;;;33.42;14.18;;;2.80;99.90;;;;;;5010905;28;20034;-72
2020/12/03 10:32:57;;;;;;;39.58;16.17;;;2.80;99.90;;;;;;5010763;28;20038;-73
2020/12/03 10:35:47;;;;;;;29.77;13.50;;;2.80;99.90;;;;;;5010104;28;20088;-72
2020/12/03 10:38:47;;;;;;;31.85;13.07;;;2.90;99.90;;;;;;5009339;28;20038;-72
2020/12/03 10:41:38;;;;;;;30.08;12.43;;;2.80;99.90;;;;;;5023529;28;20037;-72
2020/12/03 10:44:27;;;;;;;32.38;13.80;;;2.80;99.90;;;;;;5029636;28;20084;-72
2020/12/03 10:47:20;;;;;;;37.30;14.10;;;2.80;99.90;;;;;;5016363;28;20033;-72
2020/12/03 10:50:06;;;;;;;29.48;13.73;;;2.80;99.90;;;;;;5017830;28;20037;-71
2020/12/03 10:52:52;;;;;;;29.90;12.93;;;2.90;99.90;;;;;;5031372;28;20202;-71
2020/12/03 10:55:40;;;;;;;34.58;13.52;;;3.00;99.90;;;;;;5017385;28;20046;-68
2020/12/03 10:59:10;;;;;;;29.17;13.20;;;3.10;99.90;;;;;;4997901;28;20363;-72
2020/12/03 11:01:57;;;;;;;29.20;12.05;;;2.90;99.90;;;;;;5011182;28;20041;-73
2020/12/03 11:04:44;;;;;;;28.48;12.35;;;2.90;99.90;;;;;;5008467;28;20041;-73
2020/12/03 11:07:30;;;;;;;30.75;12.90;;;3.00;99.90;;;;;;5013012;28;20042;-72
2020/12/03 11:10:17;;;;;;;33.65;12.52;;;3.00;99.90;;;;;;5015582;28;20176;-70
2020/12/03 11:13:05;;;;;;;28.27;11.93;;;2.90;99.90;;;;;;5029710;28;20402;-73
2020/12/03 11:15:58;;;;;;;30.80;12.23;;;3.00;99.90;;;;;;5015852;28;20113;-74
2020/12/03 11:18:48;;;;;;;26.90;10.70;;;3.00;99.90;;;;;;5016267;28;20044;-72
2020/12/03 11:21:41;;;;;;;28.55;11.88;;;3.00;99.90;;;;;;5016378;28;20087;-73
2020/12/03 11:24:57;;;;;;;26.98;10.88;;;3.10;99.90;;;;;;5016137;28;20045;-73
2020/12/03 11:27:43;;;;;;;34.00;12.05;;;3.10;99.90;;;;;;5017297;28;20116;-66
2020/12/03 11:30:31;;;;;;;25.17;11.23;;;3.10;99.90;;;;;;5029888;28;20077;-64
2020/12/03 11:33:24;;;;;;;27.25;12.68;;;3.20;99.90;;;;;;5030024;28;20042;-64
2020/12/03 11:36:15;;;;;;;29.17;12.70;;;3.20;99.90;;;;;;5016344;28;20045;-65
2020/12/03 11:39:04;;;;;;;33.80;10.80;;;3.20;99.90;;;;;;5016913;28;20409;-65
2020/12/03 11:42:08;;;;;;;27.80;11.40;;;3.30;99.90;;;;;;5034518;28;20184;-65
2020/12/03 11:50:45;;;;;;;22.58;11.27;;;3.40;99.90;;;;;;5033133;28;20088;-64
2020/12/03 11:53:32;;;;;;;25.23;10.23;;;3.40;99.90;;;;;;5033565;28;20064;-65
2020/12/03 11:56:18;;;;;;;27.10;10.80;;;3.40;99.90;;;;;;5032642;28;20451;-64
2020/12/03 11:59:18;;;;;;;25.77;9.77;;;3.50;99.90;;;;;;5019581;28;20053;-64
2020/12/03 12:02:07;;;;;;;23.25;10.25;;;3.50;99.90;;;;;;5034172;28;20045;-64
2020/12/03 12:05:05;;;;;;;20.60;8.98;;;3.60;99.90;;;;;;5018454;28;20037;-64
2020/12/03 12:08:11;;;;;;;24.50;11.00;;;3.60;99.90;;;;;;5034596;28;20049;-64
2020/12/03 12:13:43;;;;;;;22.25;9.45;;;3.50;99.90;;;;;;5030817;28;20469;-64
2020/12/03 12:16:29;;;;;;;21.70;9.60;;;3.60;99.90;;;;;;5033354;28;20064;-64
2020/12/03 12:19:15;;;;;;;24.60;10.80;;;3.60;99.90;;;;;;5033549;28;20095;-64
2020/12/03 12:22:03;;;;;;;22.42;9.38;;;3.60;99.90;;;;;;5033563;28;20514;-64
2020/12/03 12:24:49;;;;;;;23.02;10.48;;;3.70;99.90;;;;;;5019511;28;20032;-65
2020/12/03 12:27:35;;;;;;;21.73;9.93;;;3.50;99.90;;;;;;5033172;28;20406;-64
2020/12/03 12:30:21;;;;;;;24.30;10.43;;;3.40;99.90;;;;;;5034214;28;20140;-64
2020/12/03 12:33:07;;;;;;;23.85;10.02;;;3.50;99.90;;;;;;5027930;28;20042;-64
2020/12/03 12:35:53;;;;;;;22.38;9.70;;;3.50;99.90;;;;;;5013627;28;20127;-64
2020/12/03 12:38:39;;;;;;;23.35;9.85;;;3.60;99.90;;;;;;4999303;28;20042;-64
2020/12/03 12:41:25;;;;;;;26.58;11.70;;;3.60;99.90;;;;;;5013293;28;20041;-64
2020/12/03 12:44:12;;;;;;;24.60;10.88;;;3.80;99.90;;;;;;5012887;28;20399;-65
2020/12/03 12:47:01;;;;;;;27.40;11.18;;;3.70;99.90;;;;;;5012536;28;20042;-64
2020/12/03 12:49:49;;;;;;;26.90;9.35;;;3.70;99.90;;;;;;5013012;28;20034;-65
2020/12/03 12:52:35;;;;;;;22.20;9.57;;;3.60;99.90;;;;;;5011486;28;20081;-66
2020/12/03 12:55:21;;;;;;;22.08;10.13;;;3.70;99.90;;;;;;5011582;28;20438;-64
2020/12/03 12:58:07;;;;;;;22.02;9.60;;;3.70;99.90;;;;;;5011561;28;20050;-64
2020/12/03 13:00:53;;;;;;;21.33;9.40;;;3.80;99.90;;;;;;5012949;28;20112;-65
2020/12/03 13:03:39;;;;;;;26.98;10.38;;;3.90;99.90;;;;;;5012103;28;20072;-65
2020/12/03 13:06:26;;;;;;;22.58;9.88;;;3.90;99.90;;;;;;5012741;28;20080;-65
2020/12/03 13:09:13;;;;;;;21.80;10.27;;;3.80;99.90;;;;;;5012497;28;20049;-64
2020/12/03 13:12:00;;;;;;;24.15;9.13;;;3.80;99.90;;;;;;5013210;28;20133;-64
2020/12/03 13:14:46;;;;;;;22.98;9.90;;;4.10;99.90;;;;;;5011519;28;20038;-64
2020/12/03 13:17:32;;;;;;;21.50;9.35;;;4.70;99.90;;;;;;5010106;28;20045;-64
2020/12/03 13:20:18;;;;;;;20.88;9.23;;;4.80;99.90;;;;;;5011742;28;20066;-64
2020/12/03 13:23:04;;;;;;;24.13;9.38;;;5.50;99.90;;;;;;5012450;28;20053;-64
2020/12/03 13:25:51;;;;;;;17.10;7.80;;;6.20;99.90;;;;;;5012020;28;20506;-65
2020/12/03 13:28:37;;;;;;;12.57;6.60;;;6.30;99.90;;;;;;5011903;28;20048;-64
2020/12/03 13:31:23;;;;;;;16.23;7.00;;;6.60;99.90;;;;;;5013205;28;20077;-64
2020/12/03 13:34:09;;;;;;;18.45;7.63;;;6.00;99.90;;;;;;5017782;28;20402;-64
2020/12/03 13:36:55;;;;;;;14.65;7.53;;;5.70;99.90;;;;;;5030296;28;20073;-65
2020/12/03 13:39:42;;;;;;;14.95;6.43;;;5.10;99.90;;;;;;5032015;28;20040;-65
2020/12/03 13:42:28;;;;;;;13.80;7.05;;;5.00;99.90;;;;;;5033579;28;20034;-65
2020/12/03 13:45:14;;;;;;;15.18;6.60;;;5.20;99.90;;;;;;5018237;28;20494;-65
2020/12/03 13:48:01;;;;;;;16.45;6.43;;;5.80;99.90;;;;;;5032015;28;20030;-65
2020/12/03 13:50:47;;;;;;;19.05;8.98;;;5.90;99.90;;;;;;5017159;28;20410;-64
2020/12/03 13:53:33;;;;;;;14.63;6.70;;;5.40;99.90;;;;;;5017111;28;20044;-64
2020/12/03 13:56:19;;;;;;;15.45;7.30;;;5.10;99.90;;;;;;5016725;28;20520;-65
2020/12/03 13:59:05;;;;;;;13.75;6.40;;;5.00;99.90;;;;;;5018859;28;20033;-65
2020/12/03 14:01:52;;;;;;;18.00;8.13;;;5.30;99.90;;;;;;5031478;28;20042;-64
2020/12/03 14:04:38;;;;;;;15.55;7.18;;;5.30;99.90;;;;;;5030303;28;20036;-65
2020/12/03 14:07:24;;;;;;;14.38;6.63;;;5.60;99.90;;;;;;5031245;28;20510;-65
2020/12/03 14:10:10;;;;;;;16.63;7.10;;;5.50;99.90;;;;;;5030861;28;20029;-65
2020/12/03 14:12:58;;;;;;;18.27;7.35;;;5.40;99.90;;;;;;5031152;28;20054;-65
2020/12/03 14:15:44;;;;;;;18.27;7.63;;;5.00;99.90;;;;;;5030648;28;20397;-65
2020/12/03 14:18:35;;;;;;;18.17;7.68;;;4.90;99.90;;;;;;5030045;28;20124;-65
2020/12/03 14:21:21;;;;;;;19.30;8.73;;;4.70;99.90;;;;;;5017826;28;20173;-65
2020/12/03 14:24:08;;;;;;;16.33;7.30;;;4.50;99.90;;;;;;5031305;28;20103;-65
2020/12/03 14:26:54;;;;;;;15.50;7.47;;;4.40;99.90;;;;;;5029981;28;20036;-65
2020/12/03 14:29:41;;;;;;;22.77;8.73;;;4.50;99.90;;;;;;5016876;28;20044;-64
2020/12/03 14:32:27;;;;;;;16.92;7.07;;;4.40;99.90;;;;;;5016488;28;20424;-65
2020/12/03 14:35:15;;;;;;;14.55;8.07;;;4.50;99.90;;;;;;5011409;28;20049;-65
2020/12/03 14:38:01;;;;;;;16.95;7.10;;;4.40;99.90;;;;;;5011944;28;20518;-65
2020/12/03 14:40:48;;;;;;;15.43;8.20;;;4.20;99.90;;;;;;5010197;28;20044;-65
2020/12/03 14:43:34;;;;;;;19.40;9.00;;;4.10;99.90;;;;;;4996449;28;20038;-64
2020/12/03 14:46:20;;;;;;;16.67;7.82;;;4.00;99.90;;;;;;5010974;28;20128;-65
2020/12/03 14:49:06;;;;;;;15.93;7.75;;;4.00;99.90;;;;;;5009873;28;20104;-65
2020/12/03 14:51:59;;;;;;;18.50;8.35;;;3.90;99.90;;;;;;5010090;28;20038;-66
2020/12/03 14:54:47;;;;;;;14.43;6.65;;;4.00;99.90;;;;;;4998399;28;20406;-64
2020/12/03 14:57:35;;;;;;;15.45;7.80;;;4.00;99.90;;;;;;5010643;28;20116;-64